Time;durP1;ratioP1;P1;durP2;ratioP2;P2;SDS_P1;SDS_P2;PMS_P1;PMS_P2;Temp;Humidity;BMP_temperature;BMP_pressure;BME280_temperature;BME280_humidity;BME280_pressure;Samples;Min_cycle;Max_cycle;Signal;HPM_P1;HPM_P2
2022/05/04 00:00:11;;;;;;;12.95;7.75;;;;;;;9.72;100.00;95452.50;5068906;28;20041;-75
2022/05/04 00:02:57;;;;;;;13.90;8.05;;;;;;;9.80;100.00;95449.34;5067765;28;20601;-76
2022/05/04 00:05:22;;;;;;;17.02;8.57;;;;;;;9.80;100.00;95454.63;5068279;28;20040;-74
2022/05/04 00:07:48;;;;;;;14.60;8.98;;;;;;;9.70;100.00;95457.25;5059723;28;20043;-74
2022/05/04 00:10:13;;;;;;;17.58;9.60;;;;;;;9.70;100.00;95449.38;5068929;28;20048;-73
2022/05/04 00:12:39;;;;;;;17.30;9.27;;;;;;;9.75;100.00;95453.84;5065632;28;20482;-74
2022/05/04 00:15:05;;;;;;;17.65;9.43;;;;;;;9.83;100.00;95448.81;5060986;28;20036;-74
2022/05/04 00:17:31;;;;;;;17.63;9.63;;;;;;;9.78;100.00;95456.69;5067674;28;20056;-73
2022/05/04 00:19:57;;;;;;;17.02;9.40;;;;;;;9.72;100.00;95452.50;5068951;28;20052;-74
2022/05/04 00:22:25;;;;;;;15.35;9.35;;;;;;;9.83;100.00;95438.31;5065023;28;20041;-73
2022/05/04 00:24:50;;;;;;;16.48;9.63;;;;;;;9.85;100.00;95451.19;5065995;28;20485;-74
2022/05/04 00:27:16;;;;;;;14.80;9.15;;;;;;;9.80;100.00;95449.34;5063947;28;20041;-74
2022/05/04 00:29:43;;;;;;;17.00;9.57;;;;;;;9.70;100.00;95449.38;5066925;28;20113;-74
2022/05/04 00:32:10;;;;;;;22.10;10.30;;;;;;;9.76;100.00;95448.31;5063996;28;20045;-74
2022/05/04 00:34:36;;;;;;;17.60;9.75;;;;;;;9.70;100.00;95444.13;5054207;28;20044;-74
2022/05/04 00:37:02;;;;;;;17.02;9.75;;;;;;;9.76;100.00;95453.56;5069036;28;20055;-74
2022/05/04 00:39:28;;;;;;;18.48;9.57;;;;;;;9.67;100.00;95455.16;5069777;28;20051;-74
2022/05/04 00:41:53;;;;;;;16.67;10.10;;;;;;;9.67;100.00;95449.91;5069080;28;20051;-74
2022/05/04 00:44:19;;;;;;;17.33;9.80;;;;;;;9.60;100.00;95454.66;5060576;28;20037;-74
2022/05/04 00:46:45;;;;;;;17.20;9.98;;;;;;;9.62;100.00;95447.28;5056813;28;20033;-74
2022/05/04 00:49:11;;;;;;;19.48;10.02;;;;;;;9.62;100.00;95447.28;5069241;28;20044;-73
2022/05/04 00:51:37;;;;;;;17.95;10.35;;;;;;;9.65;100.00;95442.25;5063749;28;20044;-74
2022/05/04 00:54:03;;;;;;;17.75;10.07;;;;;;;9.65;100.00;95454.63;5068993;28;20052;-73
2022/05/04 00:56:29;;;;;;;16.35;9.65;;;;;;;9.61;100.00;95450.94;5050272;28;20052;-73
2022/05/04 00:58:56;;;;;;;19.15;10.20;;;;;;;9.57;100.00;95449.91;5067435;28;20048;-73
2022/05/04 01:01:29;;;;;;;14.10;9.40;;;;;;;9.49;100.00;95448.59;5065196;28;20063;-73
2022/05/04 01:03:57;;;;;;;16.10;9.87;;;;;;;9.50;100.00;95450.97;5068730;28;20051;-74
2022/05/04 01:06:24;;;;;;;17.02;10.30;;;;;;;9.52;100.00;95448.88;5060867;28;20293;-74
2022/05/04 01:08:51;;;;;;;17.38;10.63;;;;;;;9.38;100.00;95453.06;5049673;28;20045;-73
2022/05/04 01:11:18;;;;;;;16.00;10.15;;;;;;;9.38;100.00;95458.34;5065850;28;20451;-74
2022/05/04 01:13:59;;;;;;;16.70;9.98;;;;;;;9.33;100.00;95451.22;5067697;28;20502;-74
2022/05/04 01:16:26;;;;;;;18.38;9.60;;;;;;;9.22;100.00;95454.09;5062556;28;20071;-74
2022/05/04 01:18:52;;;;;;;20.52;10.70;;;;;;;9.23;100.00;95445.97;5059309;28;20089;-74
2022/05/04 01:21:17;;;;;;;16.45;9.68;;;;;;;9.14;100.00;95448.31;5068771;28;20041;-74
2022/05/04 01:23:43;;;;;;;16.40;9.98;;;;;;;9.08;100.00;95444.13;5060118;28;20422;-74
2022/05/04 01:26:09;;;;;;;18.65;9.93;;;;;;;8.97;100.00;95447.78;5060578;28;20116;-74
2022/05/04 01:28:34;;;;;;;14.95;9.45;;;;;;;8.99;100.00;95446.47;5067596;28;20124;-74
2022/05/04 01:31:00;;;;;;;18.42;9.55;;;;;;;8.99;100.00;95453.53;5083564;28;20124;-74
2022/05/04 01:33:25;;;;;;;17.38;10.57;;;;;;;8.88;100.00;95444.06;5068008;28;20517;-74
2022/05/04 01:35:51;;;;;;;18.73;10.90;;;;;;;8.89;100.00;95450.91;5067587;28;20074;-74
2022/05/04 01:38:16;;;;;;;18.48;9.98;;;;;;;8.87;100.00;95453.00;5084431;28;20052;-74
2022/05/04 01:40:42;;;;;;;15.68;9.95;;;;;;;8.87;100.00;95447.75;5068765;28;20040;-74
2022/05/04 01:43:08;;;;;;;20.23;10.80;;;;;;;8.90;100.00;95447.25;5059064;28;20506;-74
2022/05/04 01:45:33;;;;;;;20.58;10.70;;;;;;;8.84;100.00;95443.81;5056590;28;20087;-74
2022/05/04 01:47:59;;;;;;;20.98;10.50;;;;;;;8.94;100.00;95450.94;5049122;28;20048;-74
2022/05/04 01:50:24;;;;;;;21.88;10.27;;;;;;;8.96;100.00;95446.97;5049161;28;20041;-74
2022/05/04 01:52:50;;;;;;;20.48;10.93;;;;;;;8.91;100.00;95443.59;5066110;28;20087;-74
2022/05/04 01:55:17;;;;;;;21.88;10.65;;;;;;;8.91;100.00;95451.44;5054311;28;20048;-74
2022/05/04 01:57:42;;;;;;;17.33;10.40;;;;;;;8.91;100.00;95454.06;5066788;28;20430;-74
2022/05/04 02:00:09;;;;;;;22.80;11.07;;;;;;;8.92;100.00;95445.13;5055935;28;20055;-74
2022/05/04 02:02:34;;;;;;;17.10;10.65;;;;;;;8.91;100.00;95448.81;5064251;28;20041;-74
2022/05/04 02:05:00;;;;;;;18.85;10.43;;;;;;;8.92;100.00;95451.19;5057838;28;20039;-74
2022/05/04 02:07:27;;;;;;;29.15;11.43;;;;;;;9.00;100.00;95447.25;5071133;28;20118;-74
2022/05/04 02:09:54;;;;;;;20.48;10.85;;;;;;;8.98;100.00;95449.38;5064076;28;20114;-74
2022/05/04 02:12:19;;;;;;;21.85;11.75;;;;;;;8.96;100.00;95446.19;5063675;28;20574;-74
2022/05/04 02:14:45;;;;;;;22.80;12.00;;;;;;;9.07;100.00;95447.78;5067732;28;20036;-74
2022/05/04 02:17:10;;;;;;;21.17;11.43;;;;;;;9.07;100.00;95447.78;5062927;28;20059;-74
2022/05/04 02:19:36;;;;;;;19.00;10.88;;;;;;;9.09;100.00;95440.44;5068243;28;20537;-74
2022/05/04 02:22:02;;;;;;;21.20;11.52;;;;;;;9.17;100.00;95437.28;5068888;28;20105;-74
2022/05/04 02:24:27;;;;;;;18.73;10.38;;;;;;;9.26;100.00;95434.16;5068551;28;20040;-74
2022/05/04 02:26:53;;;;;;;15.52;9.43;;;;;;;9.25;100.00;95437.81;5079463;28;20037;-74
2022/05/04 02:29:18;;;;;;;19.42;10.55;;;;;;;9.22;100.00;95433.88;5071914;28;20043;-74
2022/05/04 02:31:44;;;;;;;19.25;10.57;;;;;;;9.18;100.00;95438.88;5070468;28;20359;-74
2022/05/04 02:34:09;;;;;;;15.73;10.13;;;;;;;9.12;100.00;95439.13;5072036;28;20120;-74
2022/05/04 02:39:19;;;;;;;17.48;10.05;;;;;;;9.14;100.00;95437.81;5054921;28;20090;-74
2022/05/04 02:41:45;;;;;;;18.25;10.52;;;;;;;9.09;100.00;95440.44;5070151;28;20037;-74
2022/05/04 02:44:11;;;;;;;17.90;9.77;;;;;;;9.08;100.00;95441.50;5071865;28;20044;-74
2022/05/04 02:46:36;;;;;;;17.40;10.70;;;;;;;8.91;100.00;95436.47;5069176;28;20094;-74
2022/05/04 02:49:02;;;;;;;21.13;10.70;;;;;;;8.87;100.00;95434.66;5071581;28;20097;-74
2022/05/04 02:51:27;;;;;;;20.30;11.10;;;;;;;8.86;100.00;95441.72;5070512;28;20056;-74
2022/05/04 02:53:53;;;;;;;19.17;11.10;;;;;;;8.81;100.00;95434.63;5071621;28;20048;-74
2022/05/04 02:56:19;;;;;;;21.27;11.38;;;;;;;8.78;100.00;95437.78;5063795;28;20048;-74
2022/05/04 02:58:45;;;;;;;16.80;10.43;;;;;;;8.68;100.00;95440.38;5066001;28;20045;-74
2022/05/04 03:04:04;;;;;;;21.98;11.95;;;;;;;8.74;100.00;95438.56;5071853;28;20074;-74
2022/05/04 03:06:30;;;;;;;16.48;10.05;;;;;;;8.76;100.00;95441.69;5064420;28;20064;-74
2022/05/04 03:08:55;;;;;;;20.77;10.30;;;;;;;8.71;100.00;95433.81;5071531;28;20508;-74
2022/05/04 03:14:07;;;;;;;20.45;11.23;;;;;;;8.71;100.00;95433.81;5053229;28;20096;-74
2022/05/04 03:16:36;;;;;;;19.45;10.38;;;;;;;8.74;100.00;95436.72;5060067;28;20052;-74
2022/05/04 03:19:03;;;;;;;24.83;11.35;;;;;;;8.69;100.00;95441.94;5071785;28;20506;-74
2022/05/04 03:21:29;;;;;;;17.75;10.63;;;;;;;8.63;100.00;95438.53;5057228;28;20072;-73
2022/05/04 03:23:54;;;;;;;21.30;11.40;;;;;;;8.63;100.00;95432.47;5071421;28;20090;-74
2022/05/04 03:26:20;;;;;;;22.75;10.93;;;;;;;8.68;100.00;95440.38;5065635;28;20090;-74
2022/05/04 03:28:46;;;;;;;20.15;10.82;;;;;;;8.57;100.00;95428.28;5068376;28;20086;-74
2022/05/04 03:31:12;;;;;;;19.58;10.85;;;;;;;8.53;100.00;95427.97;5068712;28;20574;-74
2022/05/04 03:33:37;;;;;;;19.40;10.77;;;;;;;8.56;100.00;95426.69;5071093;28;20052;-74
2022/05/04 03:36:03;;;;;;;17.85;10.25;;;;;;;8.57;100.00;95423.03;5069029;28;20056;-74
2022/05/04 03:38:29;;;;;;;19.95;10.13;;;;;;;8.52;100.00;95425.63;5051578;28;20048;-74
2022/05/04 03:40:54;;;;;;;17.35;10.85;;;;;;;8.45;100.00;95424.03;5064016;28;20094;-74
2022/05/04 03:43:20;;;;;;;23.10;11.23;;;;;;;8.49;100.00;95432.16;5069604;28;20669;-74
2022/05/04 03:45:45;;;;;;;19.05;10.88;;;;;;;8.51;100.00;95424.84;5068859;28;20128;-74
2022/05/04 03:48:11;;;;;;;19.38;10.77;;;;;;;8.49;100.00;95417.22;5070977;28;20049;-74
2022/05/04 03:50:36;;;;;;;17.13;10.30;;;;;;;8.54;100.00;95431.41;5062126;28;20047;-74
2022/05/04 03:53:02;;;;;;;19.73;10.77;;;;;;;8.56;100.00;95431.94;5067634;28;20048;-74
2022/05/04 03:55:27;;;;;;;18.67;10.90;;;;;;;8.52;100.00;95430.88;5059913;28;20044;-74
2022/05/04 03:57:53;;;;;;;19.98;9.77;;;;;;;8.54;100.00;95428.78;5059647;28;20538;-74
2022/05/04 04:00:19;;;;;;;19.67;10.85;;;;;;;8.44;100.00;95434.75;5060791;28;20052;-74
2022/05/04 04:02:45;;;;;;;16.65;10.13;;;;;;;8.40;100.00;95439.72;5070239;28;20029;-74
2022/05/04 04:05:10;;;;;;;17.70;10.57;;;;;;;8.36;100.00;95438.69;5066486;28;20032;-73
2022/05/04 04:07:36;;;;;;;20.70;11.27;;;;;;;8.37;100.00;95439.44;5058450;28;20048;-74
2022/05/04 04:10:02;;;;;;;21.77;12.25;;;;;;;8.41;100.00;95446.53;5056586;28;20055;-74
2022/05/04 04:12:27;;;;;;;21.13;11.95;;;;;;;8.41;100.00;95457.03;5070142;28;20041;-74
2022/05/04 04:14:53;;;;;;;22.20;11.65;;;;;;;8.40;100.00;95450.19;5065922;28;20037;-73
2022/05/04 04:17:18;;;;;;;19.42;11.05;;;;;;;8.43;100.00;95449.72;5070841;28;20076;-74
2022/05/04 04:19:44;;;;;;;19.38;10.82;;;;;;;8.49;100.00;95453.94;5065688;28;20040;-74
2022/05/04 04:22:10;;;;;;;20.98;11.05;;;;;;;8.59;100.00;95452.41;5068763;28;20041;-73
2022/05/04 04:24:36;;;;;;;18.98;11.43;;;;;;;8.71;100.00;95458.22;5068501;28;20538;-73
2022/05/04 04:27:01;;;;;;;19.45;10.77;;;;;;;8.71;100.00;95455.59;5063841;28;20128;-73
2022/05/04 04:29:27;;;;;;;18.52;10.73;;;;;;;8.73;100.00;95453.50;5063136;28;20141;-73
2022/05/04 04:31:52;;;;;;;19.20;10.88;;;;;;;8.79;100.00;95462.97;5069960;28;20041;-73
2022/05/04 04:34:18;;;;;;;21.15;10.60;;;;;;;8.84;100.00;95455.09;5061253;28;20123;-73
2022/05/04 04:36:44;;;;;;;21.38;10.77;;;;;;;8.91;100.00;95454.84;5050564;28;20041;-73
2022/05/04 04:39:09;;;;;;;21.05;10.48;;;;;;;8.99;100.00;95456.16;5061152;28;20048;-73
2022/05/04 04:41:35;;;;;;;22.25;11.52;;;;;;;9.06;100.00;95461.97;5069143;28;20037;-73
2022/05/04 04:44:01;;;;;;;18.45;10.60;;;;;;;9.13;100.00;95452.00;5066857;28;20045;-73
2022/05/04 04:46:27;;;;;;;20.38;10.90;;;;;;;9.21;100.00;95452.53;5050038;28;20103;-73
2022/05/04 04:48:52;;;;;;;17.17;10.38;;;;;;;9.23;100.00;95460.94;5067830;28;20048;-73
2022/05/04 04:51:18;;;;;;;16.65;10.60;;;;;;;9.29;100.00;95465.13;5054953;28;20127;-74
2022/05/04 04:53:43;;;;;;;19.30;10.35;;;;;;;9.43;100.00;95460.94;5064858;28;20153;-74
2022/05/04 04:56:09;;;;;;;18.63;10.48;;;;;;;9.45;100.00;95466.75;5056460;28;20111;-73
2022/05/04 04:58:35;;;;;;;16.58;9.63;;;;;;;9.47;100.00;95467.25;5049762;28;20048;-73
2022/05/04 05:01:00;;;;;;;19.08;9.48;;;;;;;9.56;100.00;95470.13;5075761;28;20048;-75
2022/05/04 05:03:26;;;;;;;16.73;9.30;;;;;;;9.59;100.00;95463.56;5069567;28;20075;-74
2022/05/04 05:05:51;;;;;;;16.88;9.63;;;;;;;9.68;100.00;95461.97;5060014;28;20037;-74
2022/05/04 05:08:17;;;;;;;15.07;8.10;;;;;;;9.78;100.00;95467.22;5049702;28;20041;-73
2022/05/04 05:10:42;;;;;;;14.50;8.63;;;;;;;9.83;100.00;95464.59;5059458;28;20040;-74
2022/05/04 05:13:08;;;;;;;13.10;6.90;;;;;;;9.95;100.00;95466.16;5068958;28;20052;-74
2022/05/04 05:18:22;;;;;;;13.45;7.43;;;;;;;9.93;100.00;95463.00;5057850;28;20055;-74
2022/05/04 05:20:48;;;;;;;13.30;7.70;;;;;;;9.93;100.00;95470.88;5068725;28;20420;-74
2022/05/04 05:23:13;;;;;;;12.23;7.57;;;;;;;9.88;100.00;95461.97;5067483;28;20051;-74
2022/05/04 05:25:39;;;;;;;12.82;7.63;;;;;;;9.93;100.00;95463.78;5048982;28;20037;-74
2022/05/04 05:28:05;;;;;;;14.00;7.43;;;;;;;9.99;100.00;95467.22;5049097;28;20052;-73
2022/05/04 05:30:31;;;;;;;11.43;6.80;;;;;;;9.97;100.00;95464.84;5054858;28;20410;-74
2022/05/04 05:32:57;;;;;;;13.27;7.10;;;;;;;9.98;100.00;95465.63;5068617;28;20043;-74
2022/05/04 05:35:22;;;;;;;12.45;7.25;;;;;;;10.01;100.00;95459.81;5063403;28;20052;-73
2022/05/04 05:37:48;;;;;;;13.43;7.65;;;;;;;10.06;100.00;95467.72;5069101;28;20044;-74
2022/05/04 05:40:14;;;;;;;16.40;7.90;;;;;;;10.05;100.00;95460.88;5068309;28;20056;-74
2022/05/04 05:42:39;;;;;;;13.07;7.70;;;;;;;10.04;100.00;95470.63;5068441;28;20552;-74
2022/05/04 05:45:06;;;;;;;14.38;7.68;;;;;;;10.08;100.00;95470.84;5055288;28;20040;-74
2022/05/04 05:47:32;;;;;;;13.38;7.85;;;;;;;10.08;100.00;95470.06;5068674;28;20055;-74
2022/05/04 05:49:58;;;;;;;11.63;7.72;;;;;;;10.06;100.00;95472.97;5061912;28;20040;-74
2022/05/04 05:52:24;;;;;;;15.63;7.82;;;;;;;10.17;100.00;95474.53;5068587;28;20452;-74
2022/05/04 05:54:50;;;;;;;15.10;8.15;;;;;;;10.27;100.00;95478.16;5075835;28;20036;-74
2022/05/04 05:57:16;;;;;;;10.35;6.78;;;;;;;10.34;100.00;95489.22;5052905;28;20044;-74
2022/05/04 05:59:41;;;;;;;11.15;7.07;;;;;;;10.37;100.00;95488.69;5074552;28;20425;-74
2022/05/04 06:02:07;;;;;;;9.30;6.20;;;;;;;10.37;100.00;95491.31;5071419;28;20041;-74
2022/05/04 06:04:33;;;;;;;12.20;7.05;;;;;;;10.36;100.00;95497.66;5067509;28;20040;-74
2022/05/04 06:06:58;;;;;;;10.32;6.82;;;;;;;10.22;100.00;95492.91;5075335;28;20460;-74
2022/05/04 06:09:24;;;;;;;12.00;6.43;;;;;;;10.25;100.00;95490.81;5071425;28;20033;-74
2022/05/04 06:11:51;;;;;;;12.40;6.78;;;;;;;10.28;100.00;95498.16;5072890;28;20048;-74
2022/05/04 06:14:17;;;;;;;10.63;6.53;;;;;;;10.30;100.00;95496.84;5071169;28;20638;-74
2022/05/04 06:16:43;;;;;;;12.52;6.68;;;;;;;10.32;100.00;95497.34;5064470;28;20071;-74
2022/05/04 06:19:08;;;;;;;11.23;6.90;;;;;;;10.28;100.00;95506.06;5055027;28;20564;-74
2022/05/04 06:21:34;;;;;;;12.93;6.68;;;;;;;10.26;100.00;95503.69;5072653;28;20036;-73
2022/05/04 06:24:00;;;;;;;16.20;6.65;;;;;;;10.21;100.00;95501.88;5069922;28;20055;-74
2022/05/04 06:26:25;;;;;;;13.10;6.90;;;;;;;10.28;100.00;95500.78;5057697;28;20041;-75
2022/05/04 06:28:51;;;;;;;12.10;6.70;;;;;;;10.36;100.00;95508.19;5052557;28;20048;-75
2022/05/04 06:34:14;;;;;;;13.38;7.00;;;;;;;10.40;100.00;95514.44;5057453;28;20135;-73
2022/05/04 06:36:41;;;;;;;10.98;6.72;;;;;;;10.56;100.00;95518.63;5057280;28;20409;-73
2022/05/04 06:39:11;;;;;;;10.25;5.95;;;;;;;10.61;100.00;95503.88;5051871;28;20461;-74
2022/05/04 06:41:38;;;;;;;13.13;6.20;;;;;;;10.52;100.00;95516.81;5061942;28;20086;-75
2022/05/04 06:44:05;;;;;;;13.38;5.95;;;;;;;10.53;100.00;95511.28;5065863;28;20454;-76
2022/05/04 06:46:32;;;;;;;12.73;6.78;;;;;;;10.62;100.00;95516.00;5066735;28;20037;-76
2022/05/04 06:48:58;;;;;;;11.25;6.68;;;;;;;10.58;100.00;95511.25;5068400;28;20040;-76
2022/05/04 06:51:24;;;;;;;9.32;5.60;;;;;;;10.74;100.00;95516.44;5059720;28;20071;-75
2022/05/04 06:53:49;;;;;;;10.80;5.13;;;;;;;10.82;100.00;95515.09;5070308;28;20039;-76
2022/05/04 06:56:15;;;;;;;10.13;5.38;;;;;;;10.94;100.00;95514.78;5071903;28;20397;-76
2022/05/04 06:58:41;;;;;;;8.02;4.88;;;;;;;11.00;100.00;95521.59;5059560;28;20044;-77
2022/05/04 07:01:08;;;;;;;9.52;5.88;;;;;;;11.04;100.00;95517.38;5062996;28;20097;-76
2022/05/04 07:03:33;;;;;;;8.50;5.53;;;;;;;11.03;100.00;95516.59;5070650;28;20054;-76
2022/05/04 07:05:59;;;;;;;8.18;4.85;;;;;;;11.13;100.00;95515.72;5066771;28;20461;-76
2022/05/04 07:08:25;;;;;;;12.60;5.40;;;;;;;11.07;100.00;95511.56;5071904;28;20036;-76
2022/05/04 07:10:50;;;;;;;9.93;5.53;;;;;;;11.11;100.00;95509.97;5055405;28;20044;-77
2022/05/04 07:13:17;;;;;;;8.43;4.75;;;;;;;11.41;100.00;95518.75;5051728;28;20149;-77
2022/05/04 07:15:43;;;;;;;8.73;5.03;;;;;;;11.64;100.00;95513.81;5061306;28;20719;-74
2022/05/04 07:18:08;;;;;;;7.93;4.22;;;;;;;11.76;100.00;95511.63;5053753;28;20055;-77
2022/05/04 07:20:34;;;;;;;10.23;4.55;;;;;;;11.67;100.00;95514.06;5071816;28;20041;-76
2022/05/04 07:23:00;;;;;;;7.03;4.32;;;;;;;11.64;100.00;95509.34;5070891;28;20040;-76
2022/05/04 07:25:25;;;;;;;10.63;4.85;;;;;;;11.53;100.00;95513.91;5067656;28;20067;-76
2022/05/04 07:27:51;;;;;;;6.93;4.65;;;;;;;11.64;100.00;95513.81;5068836;28;20032;-76
2022/05/04 07:30:16;;;;;;;8.10;4.78;;;;;;;11.59;100.00;95504.91;5068848;28;20045;-77
2022/05/04 07:32:42;;;;;;;9.65;4.38;;;;;;;11.72;100.00;95494.78;5066684;28;20043;-76
2022/05/04 07:35:08;;;;;;;7.80;4.30;;;;;;;12.24;100.00;95511.75;5061520;28;20410;-76
2022/05/04 07:37:34;;;;;;;6.70;3.88;;;;;;;12.35;100.00;95509.00;5064792;28;20041;-76
2022/05/04 07:42:44;;;;;;;9.70;4.60;;;;;;;12.44;100.00;95504.66;5059353;28;20040;-75
2022/05/04 07:45:15;;;;;;;6.15;3.90;;;;;;;12.54;100.00;95504.59;5061334;28;20090;-76
2022/05/04 07:47:41;;;;;;;9.02;4.50;;;;;;;12.67;100.00;95497.03;5060801;28;20033;-74
2022/05/04 07:50:09;;;;;;;5.22;3.58;;;;;;;13.12;100.00;95497.53;5068899;28;20047;-74
2022/05/04 07:52:35;;;;;;;5.70;3.88;;;;;;;13.36;98.06;95499.31;5067741;28;20479;-76
2022/05/04 07:55:02;;;;;;;7.13;4.05;;;;;;;13.37;97.99;95498.25;5069510;28;20040;-75
2022/05/04 07:57:28;;;;;;;6.28;3.67;;;;;;;13.44;89.11;95506.59;5065440;28;20041;-75
2022/05/04 08:05:24;;;;;;;8.25;3.85;;;;;;;13.95;89.63;95505.81;5059123;28;20041;-75
2022/05/04 08:07:50;;;;;;;5.75;3.38;;;;;;;13.83;89.78;95500.19;5052196;28;20041;-74
2022/05/04 08:10:16;;;;;;;8.10;3.78;;;;;;;13.66;94.08;95506.81;5063084;28;20032;-74
2022/05/04 08:12:41;;;;;;;7.95;3.78;;;;;;;13.67;87.05;95511.00;5070487;28;20098;-76
2022/05/04 08:15:07;;;;;;;6.03;4.00;;;;;;;13.80;88.22;95506.06;5058573;28;20095;-76
2022/05/04 08:17:33;;;;;;;5.78;3.63;;;;;;;13.74;79.82;95513.28;5051274;28;20476;-75
2022/05/04 08:19:59;;;;;;;6.30;3.35;;;;;;;13.72;85.41;95515.44;5053399;28;20044;-74
2022/05/04 08:22:26;;;;;;;9.20;3.83;;;;;;;13.72;91.98;95509.34;5053998;28;20036;-74
2022/05/04 08:24:51;;;;;;;7.50;3.80;;;;;;;13.92;90.05;95509.03;5059216;28;20154;-73
2022/05/04 08:27:17;;;;;;;8.02;3.70;;;;;;;13.93;87.68;95515.09;5050960;28;20522;-74
2022/05/04 08:29:44;;;;;;;7.82;3.90;;;;;;;14.11;84.31;95510.84;5065858;28;20050;-73
2022/05/04 08:32:10;;;;;;;8.10;3.20;;;;;;;14.42;79.25;95510.28;5069333;28;20043;-74
2022/05/04 08:34:36;;;;;;;5.85;3.10;;;;;;;14.31;78.59;95507.81;5066853;28;20119;-75
2022/05/04 08:37:01;;;;;;;5.50;3.30;;;;;;;14.23;80.63;95513.78;5062275;28;20053;-74
2022/05/04 08:39:27;;;;;;;6.47;3.58;;;;;;;14.29;79.21;95507.31;5065263;28;20040;-75
2022/05/04 08:41:53;;;;;;;6.07;3.28;;;;;;;14.50;78.28;95514.91;5065108;28;20058;-73
2022/05/04 08:44:19;;;;;;;5.00;3.05;;;;;;;14.69;73.03;95512.94;5065145;28;20040;-74
2022/05/04 08:46:45;;;;;;;4.93;3.10;;;;;;;14.80;73.32;95515.41;5070795;28;20036;-75
2022/05/04 08:49:12;;;;;;;6.30;3.50;;;;;;;14.79;73.43;95513.84;5056747;28;20036;-74
2022/05/04 08:51:40;;;;;;;7.60;3.20;;;;;;;14.96;72.46;95514.00;5064920;28;20090;-76
2022/05/04 08:54:07;;;;;;;5.85;3.40;;;;;;;14.71;78.30;95513.44;5059349;28;20491;-74
2022/05/04 08:56:34;;;;;;;8.48;3.70;;;;;;;14.65;82.81;95514.66;5051080;28;20608;-77
2022/05/04 08:59:07;;;;;;;6.68;3.78;;;;;;;14.58;85.81;95508.91;5062134;28;20048;-74
2022/05/04 09:01:37;;;;;;;8.63;3.15;;;;;;;14.67;76.60;95512.47;5069665;28;20387;-74
2022/05/04 09:04:03;;;;;;;5.80;2.70;;;;;;;15.11;69.55;95504.16;5066814;28;20036;-73
2022/05/04 09:06:30;;;;;;;4.60;2.80;;;;;;;15.03;71.42;95498.50;5066023;28;20415;-74
2022/05/04 09:08:56;;;;;;;4.85;3.00;;;;;;;15.47;66.17;95503.38;5061784;28;20395;-75
2022/05/04 09:11:22;;;;;;;7.05;3.05;;;;;;;15.68;69.54;95501.81;5070498;28;20044;-74
2022/05/04 09:13:49;;;;;;;5.10;3.33;;;;;;;15.86;69.75;95497.44;5059612;28;20037;-74
2022/05/04 09:16:28;;;;;;;6.70;3.47;;;;;;;15.96;70.95;95501.72;5053598;28;20040;-74
2022/05/04 09:18:54;;;;;;;6.68;3.38;;;;;;;15.99;75.91;95501.13;5053789;28;20049;-74
2022/05/04 09:21:22;;;;;;;5.80;3.35;;;;;;;16.03;68.20;95496.78;5053692;28;20037;-74
2022/05/04 09:23:52;;;;;;;4.70;3.10;;;;;;;15.84;66.90;95496.19;5053355;28;20048;-74
2022/05/04 09:26:20;;;;;;;4.57;3.08;;;;;;;16.13;66.41;95494.94;5053423;28;20471;-75
2022/05/04 09:29:00;;;;;;;4.65;3.20;;;;;;;15.89;74.55;95490.75;5071155;28;20123;-75
2022/05/04 09:31:28;;;;;;;6.05;3.20;;;;;;;15.77;73.73;95492.06;5071131;28;20041;-72
2022/05/04 09:34:03;;;;;;;6.18;3.25;;;;;;;15.93;69.34;95491.69;5071236;28;20044;-73
2022/05/04 09:45:10;;;;;;;5.95;3.08;;;;;;;15.23;76.15;95499.16;5059883;28;20343;-74
2022/05/04 09:47:42;;;;;;;5.30;3.38;;;;;;;15.32;76.05;95484.09;5050626;28;20418;-74
2022/05/04 09:50:10;;;;;;;6.28;3.30;;;;;;;15.14;79.06;95490.31;5062356;28;20040;-74
2022/05/04 09:52:48;;;;;;;9.23;3.00;;;;;;;14.97;74.55;95483.78;5071522;28;20041;-74
2022/05/04 09:55:19;;;;;;;5.50;3.10;;;;;;;15.01;78.31;95490.06;5064667;28;20127;-74
2022/05/04 09:57:46;;;;;;;4.55;3.28;;;;;;;15.02;79.22;95486.31;5059398;28;20037;-74
2022/05/04 10:00:13;;;;;;;8.52;3.80;;;;;;;14.88;71.40;95493.50;5064623;28;20131;-74
2022/05/04 10:02:40;;;;;;;5.43;3.20;;;;;;;14.86;70.39;95477.13;5067597;28;20109;-74
2022/05/04 10:05:07;;;;;;;5.45;3.38;;;;;;;14.84;88.79;95477.44;5061991;28;20108;-74
2022/05/04 10:07:35;;;;;;;6.45;3.30;;;;;;;15.09;80.78;95475.31;5063562;28;20040;-73
2022/05/04 10:10:01;;;;;;;5.07;3.40;;;;;;;15.03;83.04;95466.69;5068294;28;20037;-74
2022/05/04 10:12:29;;;;;;;8.02;4.15;;;;;;;15.00;79.02;95462.00;5068725;28;20123;-74
2022/05/04 10:14:58;;;;;;;5.70;3.42;;;;;;;14.85;81.41;95467.63;5063470;28;20041;-74
2022/05/04 10:17:28;;;;;;;6.78;4.03;;;;;;;14.99;85.39;95471.00;5078386;28;20055;-76
2022/05/04 10:20:09;;;;;;;8.40;3.58;;;;;;;15.15;79.36;95468.03;5066673;28;20044;-73
2022/05/04 10:22:50;;;;;;;8.05;3.67;;;;;;;14.99;90.76;95471.00;5062589;28;20414;-73
2022/05/04 10:25:17;;;;;;;10.02;3.55;;;;;;;14.81;80.11;95463.97;5063265;28;20512;-73
2022/05/04 10:27:46;;;;;;;6.47;3.60;;;;;;;14.69;85.75;95467.91;5058731;28;20118;-73
2022/05/04 10:30:31;;;;;;;7.43;3.95;;;;;;;14.83;84.37;95472.44;5052414;28;20128;-73
2022/05/04 10:33:02;;;;;;;7.68;4.30;;;;;;;14.93;85.84;95451.03;5052898;28;20102;-74
2022/05/04 10:35:41;;;;;;;9.63;4.43;;;;;;;14.95;87.34;95454.16;5066226;28;20037;-73
2022/05/04 10:38:31;;;;;;;6.47;3.70;;;;;;;15.28;82.10;95453.94;5064131;28;20044;-73
2022/05/04 10:40:58;;;;;;;6.03;4.05;;;;;;;15.11;80.36;95453.81;5060888;28;20076;-74
2022/05/04 10:43:38;;;;;;;5.57;4.00;;;;;;;15.19;81.29;95450.47;5060953;28;20140;-74
2022/05/04 10:46:23;;;;;;;8.00;4.20;;;;;;;14.98;82.38;95453.53;5069498;28;20363;-74
2022/05/04 10:48:58;;;;;;;8.82;4.07;;;;;;;14.84;85.26;95450.13;5073467;28;20047;-73
2022/05/04 10:51:28;;;;;;;8.18;4.13;;;;;;;14.83;88.85;95446.72;5069589;28;20059;-74
2022/05/04 10:54:13;;;;;;;9.93;4.90;;;;;;;14.66;85.44;95452.63;5069407;28;20101;-73
2022/05/04 10:56:46;;;;;;;;;;;;;;;14.46;85.09;95458.31;5063368;28;20066;-74
2022/05/04 10:59:30;;;;;;;8.00;4.65;;;;;;;14.54;85.45;95454.97;5067792;28;19931;-74
2022/05/04 11:02:05;;;;;;;7.13;3.95;;;;;;;14.62;82.31;95456.94;5073746;28;20040;-73
2022/05/04 11:04:32;;;;;;;17.50;4.78;;;;;;;14.84;81.70;95439.53;5066149;28;20048;-73
2022/05/04 11:07:00;;;;;;;10.98;4.57;;;;;;;15.93;74.64;95438.63;5055372;28;20518;-74
2022/05/04 11:09:32;;;;;;;8.25;4.30;;;;;;;15.52;72.82;95439.63;5058375;28;20115;-73
2022/05/04 11:12:00;;;;;;;10.15;4.47;;;;;;;15.29;77.06;95430.91;5068505;28;20040;-73
2022/05/04 11:14:27;;;;;;;9.93;4.47;;;;;;;15.14;74.57;95429.34;5069162;28;20041;-74
2022/05/04 11:16:56;;;;;;;8.38;3.95;;;;;;;15.51;72.44;95427.44;5075058;28;20131;-73
2022/05/04 11:19:27;;;;;;;8.73;4.20;;;;;;;15.40;72.73;95435.66;5064375;28;20051;-74
2022/05/04 11:21:54;;;;;;;7.63;4.32;;;;;;;15.35;73.03;95430.44;5061242;28;20110;-74
2022/05/04 11:24:19;;;;;;;8.88;4.38;;;;;;;15.28;73.30;95442.56;5064736;28;20047;-74
2022/05/04 11:26:47;;;;;;;10.07;5.05;;;;;;;15.46;72.69;95435.50;5069345;28;20033;-74
2022/05/04 11:29:19;;;;;;;11.77;5.00;;;;;;;16.15;75.74;95432.50;5067726;28;20131;-75
2022/05/04 11:31:54;;;;;;;15.15;5.25;;;;;;;17.10;72.45;95425.81;5068929;28;20043;-74
2022/05/04 11:34:22;;;;;;;9.68;5.60;;;;;;;16.73;73.51;95422.63;5070871;28;20041;-74
2022/05/04 11:36:51;;;;;;;9.95;5.32;;;;;;;16.24;71.51;95424.56;5069166;28;20123;-74
2022/05/04 11:39:19;;;;;;;10.88;5.57;;;;;;;16.04;75.81;95424.00;5064053;28;20467;-74
2022/05/04 11:41:47;;;;;;;11.30;5.25;;;;;;;16.05;75.07;95425.56;5069392;28;20036;-73
2022/05/04 11:44:14;;;;;;;11.90;6.05;;;;;;;16.11;76.71;95423.56;5061441;28;20045;-73
2022/05/04 11:46:41;;;;;;;13.55;6.57;;;;;;;16.20;75.14;95420.94;5062040;28;20037;-73
2022/05/04 11:49:11;;;;;;;8.30;5.40;;;;;;;15.66;77.55;95416.47;5067638;28;20041;-75
2022/05/04 11:51:36;;;;;;;13.77;6.88;;;;;;;15.75;80.25;95419.94;5072002;28;20064;-75
2022/05/04 11:54:03;;;;;;;14.98;6.30;;;;;;;15.67;82.38;95415.34;5067046;28;20457;-74